Time;durP1;ratioP1;P1;durP2;ratioP2;P2;SDS_P1;SDS_P2;PMS_P1;PMS_P2;Temp;Humidity;BMP_temperature;BMP_pressure;BME280_temperature;BME280_humidity;BME280_pressure;Samples;Min_cycle;Max_cycle;Signal;HPM_P1;HPM_P2
2024/01/15 00:00:12;;;;;;;31.50;23.17;;;10.50;1.00;;;;;;5047720;28;20053;-64
2024/01/15 00:02:38;;;;;;;26.02;23.27;;;10.50;1.00;;;;;;5046121;28;20049;-65
2024/01/15 00:05:04;;;;;;;34.55;24.92;;;10.40;4.20;;;;;;5045543;28;20491;-65
2024/01/15 00:07:30;;;;;;;26.08;23.23;;;10.40;5.10;;;;;;5047255;28;20091;-65
2024/01/15 00:09:55;;;;;;;30.30;24.35;;;10.60;1.00;;;;;;5047747;28;20037;-64
2024/01/15 00:12:21;;;;;;;29.08;25.90;;;10.50;5.10;;;;;;5047687;28;20403;-65
2024/01/15 00:14:46;;;;;;;27.75;24.85;;;10.60;8.20;;;;;;5046359;28;20459;-63
2024/01/15 00:17:12;;;;;;;28.13;25.23;;;10.60;3.20;;;;;;5046162;28;20072;-65
2024/01/15 00:19:38;;;;;;;35.53;25.48;;;10.70;1.00;;;;;;5045675;28;20041;-66
2024/01/15 00:22:04;;;;;;;30.67;26.83;;;10.60;1.00;;;;;;5047348;28;20041;-65
2024/01/15 00:24:30;;;;;;;28.98;26.35;;;10.60;10.10;;;;;;5045309;28;20094;-65
2024/01/15 00:26:55;;;;;;;31.55;26.70;;;10.00;31.60;;;;;;5047395;28;20045;-64
2024/01/15 00:29:21;;;;;;;33.22;28.90;;;10.00;56.80;;;;;;5045684;28;20048;-65
2024/01/15 00:31:47;;;;;;;33.75;30.50;;;9.70;74.00;;;;;;5047250;28;20039;-65
2024/01/15 00:34:12;;;;;;;34.85;30.70;;;9.90;79.60;;;;;;5044791;28;20041;-64
2024/01/15 00:36:38;;;;;;;32.67;29.50;;;10.20;76.10;;;;;;5046775;28;20037;-65
2024/01/15 00:39:05;;;;;;;35.05;27.55;;;10.30;65.10;;;;;;5046898;28;20423;-66
2024/01/15 00:41:31;;;;;;;27.30;24.80;;;10.40;44.80;;;;;;5045975;28;20116;-64
2024/01/15 00:43:56;;;;;;;31.98;26.48;;;10.40;35.90;;;;;;5028578;28;20452;-64
2024/01/15 00:46:22;;;;;;;32.40;26.67;;;10.40;29.20;;;;;;5044969;28;20045;-65
2024/01/15 00:48:48;;;;;;;31.17;26.33;;;11.50;23.70;;;;;;5046375;28;20059;-66
2024/01/15 00:51:13;;;;;;;29.95;27.15;;;11.40;25.90;;;;;;5045330;28;20049;-63
2024/01/15 00:53:39;;;;;;;28.13;25.73;;;10.30;18.10;;;;;;5046264;28;20040;-66
2024/01/15 00:56:05;;;;;;;34.05;30.67;;;10.00;15.30;;;;;;5046350;28;20170;-64
2024/01/15 00:58:31;;;;;;;43.80;33.63;;;9.70;20.60;;;;;;5046672;28;20119;-64
2024/01/15 01:00:56;;;;;;;31.17;28.15;;;9.40;29.50;;;;;;5047081;28;20131;-65
2024/01/15 01:03:22;;;;;;;40.70;30.50;;;9.70;48.10;;;;;;5046391;28;20049;-65
2024/01/15 01:05:50;;;;;;;34.22;29.17;;;9.70;61.30;;;;;;5044534;28;20072;-64
2024/01/15 01:08:16;;;;;;;31.85;28.42;;;10.00;92.90;;;;;;5030563;28;20690;-66
2024/01/15 01:10:44;;;;;;;33.80;30.42;;;9.90;99.40;;;;;;5046126;28;20112;-65
2024/01/15 01:13:10;;;;;;;37.97;31.67;;;10.10;99.90;;;;;;5044678;28;20037;-64
2024/01/15 01:15:36;;;;;;;35.35;30.73;;;10.20;99.90;;;;;;5038128;28;20050;-65
2024/01/15 01:18:01;;;;;;;35.78;31.33;;;10.40;99.90;;;;;;5027851;28;20088;-65
2024/01/15 01:20:27;;;;;;;35.25;29.55;;;10.30;99.90;;;;;;5045432;28;20412;-64
2024/01/15 01:22:52;;;;;;;35.33;27.55;;;10.40;83.80;;;;;;5044325;28;20761;-64
2024/01/15 01:25:18;;;;;;;28.10;25.50;;;10.10;66.40;;;;;;5045857;28;20045;-65
2024/01/15 01:27:43;;;;;;;24.83;22.27;;;9.90;57.30;;;;;;5046064;28;20041;-63
2024/01/15 01:30:09;;;;;;;25.30;23.02;;;9.60;35.50;;;;;;5045738;28;20029;-65
2024/01/15 01:32:35;;;;;;;26.70;24.00;;;9.30;34.40;;;;;;5028108;28;20040;-65
2024/01/15 01:35:01;;;;;;;26.73;24.33;;;9.50;39.30;;;;;;5045430;28;20040;-65
2024/01/15 01:37:26;;;;;;;28.40;25.73;;;9.60;54.00;;;;;;5044166;28;20708;-64
2024/01/15 01:39:52;;;;;;;29.17;26.10;;;9.50;59.50;;;;;;5045237;28;20128;-65
2024/01/15 01:42:18;;;;;;;28.92;25.40;;;9.60;54.90;;;;;;5044643;28;20106;-64
2024/01/15 01:44:43;;;;;;;26.08;23.85;;;9.90;42.70;;;;;;5044134;28;20579;-64
2024/01/15 01:47:09;;;;;;;27.02;24.50;;;10.10;20.60;;;;;;5045682;28;20565;-64
2024/01/15 01:49:35;;;;;;;29.17;26.52;;;10.30;23.80;;;;;;5045787;28;20844;-65
2024/01/15 01:52:04;;;;;;;29.98;27.13;;;10.20;48.10;;;;;;5045911;28;20040;-64
2024/01/15 01:54:32;;;;;;;32.75;29.08;;;10.10;49.30;;;;;;5045447;28;20052;-66
2024/01/15 01:56:58;;;;;;;36.88;28.98;;;10.20;57.10;;;;;;5043220;28;20080;-65
2024/01/15 01:59:27;;;;;;;31.90;28.55;;;10.40;60.90;;;;;;5044940;28;20118;-64
2024/01/15 02:01:54;;;;;;;32.75;29.30;;;10.20;63.10;;;;;;5045587;28;20040;-65
2024/01/15 02:04:21;;;;;;;40.17;31.05;;;10.30;59.80;;;;;;5043739;28;20454;-66
2024/01/15 02:06:48;;;;;;;37.67;27.67;;;10.40;62.90;;;;;;5044327;28;20053;-65
2024/01/15 02:09:14;;;;;;;29.63;26.48;;;10.40;65.10;;;;;;5057317;28;20049;-65
2024/01/15 02:11:41;;;;;;;36.25;29.75;;;10.20;67.40;;;;;;5043763;28;20102;-65
2024/01/15 02:14:08;;;;;;;37.40;27.27;;;10.10;75.60;;;;;;5045200;28;20040;-66
2024/01/15 02:16:34;;;;;;;32.38;27.30;;;10.00;78.30;;;;;;5046029;28;20671;-64
2024/01/15 02:18:59;;;;;;;29.17;26.58;;;9.80;59.10;;;;;;5031221;28;20057;-65
2024/01/15 02:21:28;;;;;;;29.48;26.38;;;9.70;55.20;;;;;;5049571;28;20041;-64
2024/01/15 02:23:54;;;;;;;26.23;23.90;;;9.90;58.00;;;;;;5030987;28;20047;-64
2024/01/15 02:26:20;;;;;;;28.33;25.67;;;9.70;50.10;;;;;;5049384;28;20051;-65
2024/01/15 02:28:46;;;;;;;31.77;27.67;;;9.70;62.30;;;;;;5047915;28;20124;-64
2024/01/15 02:31:11;;;;;;;30.42;26.27;;;10.10;59.40;;;;;;5047177;28;20037;-64
2024/01/15 02:33:37;;;;;;;29.73;26.67;;;10.10;47.20;;;;;;5047122;28;20045;-65
2024/01/15 02:36:03;;;;;;;28.27;25.60;;;10.10;41.90;;;;;;5047633;28;20044;-66
2024/01/15 02:38:28;;;;;;;31.38;28.52;;;10.00;31.50;;;;;;5047596;28;20390;-65
2024/01/15 02:40:54;;;;;;;32.40;29.27;;;10.10;30.30;;;;;;5048994;28;20045;-66
2024/01/15 02:43:19;;;;;;;31.23;28.63;;;9.80;36.70;;;;;;5047209;28;20048;-66
2024/01/15 02:45:46;;;;;;;31.33;28.13;;;9.90;43.80;;;;;;5048876;28;20049;-65
2024/01/15 02:48:12;;;;;;;34.80;27.25;;;10.00;47.60;;;;;;5031512;28;20044;-65
2024/01/15 02:50:37;;;;;;;39.25;30.02;;;9.90;44.90;;;;;;5048454;28;20033;-65
2024/01/15 02:53:03;;;;;;;32.83;29.30;;;10.00;43.30;;;;;;5047111;28;20132;-65
2024/01/15 02:55:29;;;;;;;30.13;27.38;;;10.00;41.60;;;;;;5047771;28;20131;-65
2024/01/15 02:57:55;;;;;;;29.92;26.98;;;9.90;30.80;;;;;;5049230;28;20083;-65
2024/01/15 03:00:20;;;;;;;29.88;26.98;;;9.90;28.40;;;;;;5046980;28;20057;-64
2024/01/15 03:02:46;;;;;;;29.55;26.95;;;9.90;22.20;;;;;;5049437;28;20072;-65
2024/01/15 03:05:12;;;;;;;30.98;27.35;;;10.00;17.00;;;;;;5047043;28;20083;-65
2024/01/15 03:07:38;;;;;;;32.97;27.42;;;10.00;14.40;;;;;;5048000;28;20037;-65
2024/01/15 03:10:06;;;;;;;26.15;23.52;;;10.20;9.50;;;;;;5057378;28;20053;-65
2024/01/15 03:12:31;;;;;;;32.38;23.67;;;10.20;3.50;;;;;;5046517;28;20037;-65
2024/01/15 03:14:57;;;;;;;27.08;24.30;;;10.30;1.00;;;;;;5046215;28;20072;-65
2024/01/15 03:17:22;;;;;;;26.10;23.58;;;10.40;1.00;;;;;;5027091;28;20103;-66
2024/01/15 03:19:49;;;;;;;25.17;22.95;;;10.60;1.00;;;;;;5038156;28;20033;-66
2024/01/15 03:22:15;;;;;;;25.67;23.33;;;10.40;1.00;;;;;;5046731;28;20059;-66
2024/01/15 03:24:41;;;;;;;23.77;21.80;;;10.30;1.00;;;;;;5063368;28;20040;-64
2024/01/15 03:27:07;;;;;;;26.05;23.45;;;10.20;1.00;;;;;;5046480;28;20119;-65
2024/01/15 03:29:32;;;;;;;28.60;25.85;;;10.10;1.00;;;;;;5046600;28;20051;-66
2024/01/15 03:31:58;;;;;;;27.73;24.95;;;9.90;1.00;;;;;;5046785;28;20037;-66
2024/01/15 03:34:24;;;;;;;31.25;26.85;;;9.70;1.00;;;;;;5046941;28;20041;-66
2024/01/15 03:36:49;;;;;;;32.63;27.73;;;9.70;25.50;;;;;;5048342;28;20037;-65
2024/01/15 03:39:15;;;;;;;31.88;26.33;;;9.70;46.10;;;;;;5047864;28;20048;-65
2024/01/15 03:41:41;;;;;;;28.90;25.90;;;9.60;67.50;;;;;;5048327;28;20041;-65
2024/01/15 03:44:06;;;;;;;30.05;25.55;;;9.60;90.40;;;;;;5048014;28;20132;-65
2024/01/15 03:46:32;;;;;;;30.50;27.55;;;9.50;89.00;;;;;;5047762;28;20045;-65
2024/01/15 03:48:57;;;;;;;39.03;29.58;;;9.70;77.70;;;;;;5047658;28;20047;-66
2024/01/15 03:51:23;;;;;;;39.08;31.33;;;9.70;83.40;;;;;;5046121;28;20052;-66
2024/01/15 03:53:49;;;;;;;55.25;31.80;;;9.60;90.60;;;;;;5046488;28;20074;-66
2024/01/15 03:56:14;;;;;;;52.90;32.85;;;9.60;94.50;;;;;;5046412;28;20094;-66
2024/01/15 03:58:40;;;;;;;50.42;37.72;;;9.70;98.40;;;;;;5046273;28;20044;-66
2024/01/15 04:01:12;;;;;;;41.22;35.40;;;9.70;99.90;;;;;;5045199;28;20470;-65
2024/01/15 04:03:37;;;;;;;54.80;39.88;;;9.50;99.90;;;;;;5047255;28;20053;-67
2024/01/15 04:06:06;;;;;;;41.60;34.17;;;9.50;99.90;;;;;;5061871;28;20075;-66
2024/01/15 04:08:32;;;;;;;35.20;31.88;;;9.60;99.90;;;;;;5047266;28;20045;-64
2024/01/15 04:10:57;;;;;;;35.88;32.20;;;9.90;99.90;;;;;;5046623;28;20032;-67
2024/01/15 04:13:23;;;;;;;31.58;28.55;;;9.80;96.50;;;;;;5047311;28;20095;-66
2024/01/15 04:15:48;;;;;;;28.92;25.80;;;9.70;72.40;;;;;;5046119;28;20041;-68
2024/01/15 04:18:16;;;;;;;26.25;23.80;;;9.60;66.80;;;;;;5045675;28;20049;-65
2024/01/15 04:20:41;;;;;;;28.48;25.92;;;9.30;61.40;;;;;;5047191;28;20495;-66
2024/01/15 04:23:07;;;;;;;35.80;28.10;;;9.20;54.70;;;;;;5045790;28;20053;-67
2024/01/15 04:25:32;;;;;;;33.58;27.17;;;9.10;55.60;;;;;;5047333;28;20582;-65
2024/01/15 04:27:58;;;;;;;33.30;26.27;;;9.00;60.10;;;;;;5046019;28;20072;-66
2024/01/15 04:30:24;;;;;;;31.25;27.58;;;9.10;62.00;;;;;;5044766;28;20052;-66
2024/01/15 04:32:49;;;;;;;35.90;28.73;;;9.20;61.40;;;;;;5047149;28;20067;-66
2024/01/15 04:35:15;;;;;;;29.85;27.00;;;9.30;57.10;;;;;;5045511;28;20564;-66
2024/01/15 04:37:41;;;;;;;29.70;26.50;;;9.40;45.90;;;;;;5046367;28;20044;-64
2024/01/15 04:40:07;;;;;;;30.17;27.02;;;9.50;33.90;;;;;;5044519;28;20036;-66
2024/01/15 04:42:32;;;;;;;28.33;25.25;;;9.60;23.60;;;;;;5047047;28;20043;-64
2024/01/15 04:44:58;;;;;;;27.10;24.25;;;9.60;13.70;;;;;;5045704;28;20049;-65
2024/01/15 04:47:24;;;;;;;28.05;25.20;;;9.80;7.60;;;;;;5027785;28;20429;-65
2024/01/15 04:49:49;;;;;;;33.03;27.70;;;9.80;5.50;;;;;;5046776;28;20133;-65
2024/01/15 04:52:15;;;;;;;33.28;25.75;;;10.00;4.90;;;;;;5045658;28;20475;-66
2024/01/15 04:54:41;;;;;;;40.03;27.63;;;9.90;5.30;;;;;;5044811;28;20079;-66
2024/01/15 04:57:06;;;;;;;42.80;27.83;;;10.10;6.20;;;;;;5046591;28;20394;-65
2024/01/15 04:59:32;;;;;;;41.50;31.73;;;10.10;22.00;;;;;;5046493;28;20040;-65
2024/01/15 05:01:58;;;;;;;32.50;28.73;;;9.90;41.10;;;;;;5045694;28;20107;-65
2024/01/15 05:04:24;;;;;;;30.52;27.27;;;9.60;55.50;;;;;;5044921;28;20040;-66
2024/01/15 05:06:50;;;;;;;31.95;28.73;;;9.30;72.10;;;;;;5046238;28;20484;-64
2024/01/15 05:09:17;;;;;;;33.65;30.10;;;9.00;99.90;;;;;;5044878;28;20582;-64
2024/01/15 05:11:43;;;;;;;38.50;31.55;;;8.90;99.90;;;;;;5044832;28;20098;-65
2024/01/15 05:14:09;;;;;;;34.53;30.92;;;9.00;99.90;;;;;;5046130;28;20049;-65
2024/01/15 05:16:35;;;;;;;35.45;30.35;;;9.20;99.90;;;;;;5024796;28;20045;-65
2024/01/15 05:19:00;;;;;;;34.85;31.50;;;9.30;99.90;;;;;;5057014;28;20047;-66
2024/01/15 05:21:26;;;;;;;31.00;28.15;;;9.50;99.90;;;;;;5044582;28;20049;-65
2024/01/15 05:23:51;;;;;;;30.95;27.95;;;9.80;99.90;;;;;;5045825;28;20040;-65
2024/01/15 05:26:17;;;;;;;31.25;28.00;;;9.70;99.90;;;;;;5045686;28;20049;-66
2024/01/15 05:28:42;;;;;;;30.27;27.40;;;9.90;99.90;;;;;;5043695;28;20115;-66
2024/01/15 05:31:09;;;;;;;27.45;24.98;;;9.80;99.90;;;;;;5045711;28;20036;-65
2024/01/15 05:33:34;;;;;;;27.70;25.10;;;9.70;99.90;;;;;;5043665;28;20060;-66
2024/01/15 05:36:00;;;;;;;27.33;24.92;;;9.60;99.90;;;;;;5045063;28;20043;-65
2024/01/15 05:38:25;;;;;;;29.02;26.27;;;9.60;99.90;;;;;;5043498;28;20049;-65
2024/01/15 05:40:51;;;;;;;28.10;25.58;;;9.40;99.90;;;;;;5044737;28;20040;-66
2024/01/15 05:43:16;;;;;;;29.23;26.38;;;10.40;99.90;;;;;;5045636;28;20098;-64
2024/01/15 05:45:45;;;;;;;30.27;27.30;;;9.70;99.90;;;;;;5044436;28;20048;-65
2024/01/15 05:48:12;;;;;;;28.63;25.65;;;10.40;99.90;;;;;;5060945;28;20048;-64
2024/01/15 05:50:38;;;;;;;25.48;22.83;;;9.70;99.90;;;;;;5045009;28;20048;-65
2024/01/15 05:53:04;;;;;;;25.27;23.00;;;9.50;91.10;;;;;;5044464;28;20075;-65
2024/01/15 05:55:29;;;;;;;27.83;25.17;;;9.40;83.20;;;;;;5060941;28;20052;-65
2024/01/15 05:57:55;;;;;;;27.05;24.65;;;9.20;92.50;;;;;;5043732;28;20041;-65
2024/01/15 06:00:21;;;;;;;31.13;27.35;;;8.90;99.90;;;;;;5043246;28;20056;-65
2024/01/15 06:02:46;;;;;;;32.90;29.42;;;8.80;99.90;;;;;;5043859;28;20048;-65
2024/01/15 06:05:12;;;;;;;31.67;28.10;;;8.80;99.90;;;;;;5045807;28;20224;-65
2024/01/15 06:07:37;;;;;;;35.53;30.13;;;8.90;99.90;;;;;;5043472;28;20069;-65
2024/01/15 06:10:04;;;;;;;35.65;29.73;;;8.80;99.90;;;;;;5043790;28;20503;-65
2024/01/15 06:12:30;;;;;;;34.90;31.30;;;9.00;99.90;;;;;;5040463;28;20067;-64
2024/01/15 06:14:56;;;;;;;39.67;32.58;;;9.10;99.90;;;;;;5042494;28;20102;-65
2024/01/15 06:17:22;;;;;;;33.80;30.67;;;8.90;99.90;;;;;;5041620;28;20052;-64
2024/01/15 06:19:47;;;;;;;35.28;30.42;;;9.10;99.90;;;;;;5045028;28;20045;-65
2024/01/15 06:22:13;;;;;;;31.98;27.70;;;9.30;99.90;;;;;;5051176;28;20445;-64
2024/01/15 06:24:38;;;;;;;29.58;26.33;;;9.30;82.20;;;;;;5044547;28;20036;-65
2024/01/15 06:27:04;;;;;;;34.10;27.55;;;9.40;56.60;;;;;;5043781;28;20045;-65
2024/01/15 06:29:30;;;;;;;32.30;29.00;;;9.50;47.70;;;;;;5042451;28;20467;-65
2024/01/15 06:31:55;;;;;;;34.55;26.20;;;9.40;59.70;;;;;;5035259;28;20049;-64
2024/01/15 06:34:21;;;;;;;29.10;26.15;;;9.40;46.50;;;;;;5041202;28;20040;-65
2024/01/15 06:36:47;;;;;;;31.52;28.33;;;9.30;46.90;;;;;;5039909;28;20048;-64
2024/01/15 06:39:12;;;;;;;29.83;26.77;;;9.30;46.50;;;;;;5034481;28;20498;-66
2024/01/15 06:41:44;;;;;;;26.88;23.88;;;9.40;42.80;;;;;;5044086;28;20414;-65
2024/01/15 06:44:13;;;;;;;25.65;23.55;;;9.50;29.60;;;;;;5036702;28;20069;-65
2024/01/15 06:46:42;;;;;;;25.20;22.63;;;9.50;25.10;;;;;;5038603;28;20048;-64
2024/01/15 06:49:08;;;;;;;24.52;22.08;;;9.50;17.40;;;;;;5042575;28;20418;-66
2024/01/15 06:51:34;;;;;;;23.48;21.58;;;9.40;8.90;;;;;;5040336;28;20037;-64
2024/01/15 06:53:59;;;;;;;21.95;19.70;;;9.50;1.00;;;;;;5031286;28;20076;-64
2024/01/15 06:56:25;;;;;;;23.67;21.42;;;9.60;1.00;;;;;;5041848;28;20045;-64
2024/01/15 06:58:50;;;;;;;20.75;19.13;;;9.60;1.00;;;;;;5037070;28;20036;-66
2024/01/15 07:01:16;;;;;;;21.98;20.17;;;9.50;1.00;;;;;;5022387;28;20590;-74
2024/01/15 07:03:42;;;;;;;22.77;20.40;;;9.70;1.00;;;;;;5030692;28;20043;-75
2024/01/15 07:06:07;;;;;;;21.40;19.80;;;9.60;1.00;;;;;;5037777;28;20040;-65
2024/01/15 07:08:33;;;;;;;24.63;22.02;;;9.60;1.00;;;;;;5042706;28;20045;-64
2024/01/15 07:10:58;;;;;;;24.52;21.90;;;9.80;1.00;;;;;;5045467;28;20495;-66
2024/01/15 07:13:24;;;;;;;27.55;24.48;;;9.80;1.00;;;;;;5045147;28;20465;-66
2024/01/15 07:15:50;;;;;;;26.42;23.42;;;9.90;1.00;;;;;;5038162;28;20041;-65
2024/01/15 07:18:16;;;;;;;25.38;22.80;;;9.60;1.00;;;;;;5041540;28;20052;-66
2024/01/15 07:20:42;;;;;;;28.05;24.98;;;10.10;1.00;;;;;;5041683;28;20045;-66
2024/01/15 07:23:07;;;;;;;27.40;24.75;;;9.70;1.00;;;;;;5041385;28;20048;-67
2024/01/15 07:25:33;;;;;;;28.80;25.55;;;9.40;10.10;;;;;;5043728;28;20053;-66
2024/01/15 07:27:58;;;;;;;30.05;27.02;;;9.40;14.80;;;;;;5044416;28;20037;-65
2024/01/15 07:30:24;;;;;;;31.98;28.15;;;9.10;21.20;;;;;;5041815;28;20132;-65
2024/01/15 07:32:50;;;;;;;31.30;28.10;;;9.00;27.30;;;;;;5040047;28;20041;-65
2024/01/15 07:35:17;;;;;;;28.42;25.73;;;8.90;36.10;;;;;;5040900;28;20041;-66
2024/01/15 07:37:42;;;;;;;37.17;31.70;;;9.00;43.10;;;;;;5042268;28;20483;-67
2024/01/15 07:40:08;;;;;;;39.08;35.42;;;8.80;48.40;;;;;;5041144;28;20098;-64
2024/01/15 07:42:35;;;;;;;36.50;30.05;;;9.00;56.80;;;;;;5043856;28;20039;-64
2024/01/15 07:45:01;;;;;;;33.95;30.70;;;9.00;66.90;;;;;;5044141;28;20111;-67
2024/01/15 07:47:27;;;;;;;35.55;31.83;;;9.00;71.00;;;;;;5044686;28;20136;-65
2024/01/15 07:49:53;;;;;;;36.22;31.90;;;9.10;73.50;;;;;;5042233;28;20107;-64
2024/01/15 07:52:19;;;;;;;43.22;31.20;;;9.10;75.00;;;;;;5039086;28;20041;-64
2024/01/15 07:54:44;;;;;;;37.70;31.20;;;9.30;75.20;;;;;;5039344;28;20037;-66
2024/01/15 07:57:10;;;;;;;31.90;28.38;;;9.30;71.80;;;;;;5040253;28;20514;-65
2024/01/15 07:59:36;;;;;;;25.88;23.77;;;9.30;48.00;;;;;;5040724;28;20045;-65
2024/01/15 08:02:02;;;;;;;25.30;22.80;;;9.50;13.20;;;;;;5045054;28;20047;-65
2024/01/15 08:04:27;;;;;;;29.48;25.05;;;9.60;4.50;;;;;;5041373;28;20087;-65
2024/01/15 08:06:53;;;;;;;27.40;22.13;;;9.60;9.50;;;;;;5040222;28;20044;-64
2024/01/15 08:09:19;;;;;;;35.55;23.25;;;9.60;8.60;;;;;;5031451;28;20045;-67
2024/01/15 08:11:44;;;;;;;27.08;24.50;;;9.60;8.20;;;;;;5025469;28;20048;-64
2024/01/15 08:14:11;;;;;;;31.85;25.58;;;9.50;7.80;;;;;;5043433;28;20132;-64
2024/01/15 08:16:37;;;;;;;26.27;23.40;;;9.50;1.90;;;;;;5045070;28;20052;-64
2024/01/15 08:19:03;;;;;;;27.83;23.88;;;9.60;1.00;;;;;;5041675;28;20083;-67
2024/01/15 08:21:29;;;;;;;27.38;24.50;;;9.60;1.00;;;;;;5044406;28;20041;-67
2024/01/15 08:23:57;;;;;;;24.55;22.40;;;10.80;1.00;;;;;;5042601;28;20390;-67
2024/01/15 08:26:22;;;;;;;25.15;22.75;;;9.60;1.00;;;;;;5050372;28;20513;-66
2024/01/15 08:28:48;;;;;;;24.17;21.88;;;9.70;1.00;;;;;;5041046;28;20033;-67
2024/01/15 08:31:14;;;;;;;22.90;20.92;;;9.70;1.00;;;;;;5042664;28;20041;-67
2024/01/15 08:33:39;;;;;;;23.85;21.38;;;9.80;1.00;;;;;;5042950;28;20048;-67
2024/01/15 08:36:09;;;;;;;24.48;22.27;;;9.80;1.00;;;;;;5045126;28;20037;-67
2024/01/15 08:38:35;;;;;;;37.53;25.02;;;9.70;1.00;;;;;;5040975;28;20064;-67
2024/01/15 08:41:34;;;;;;;37.15;26.05;;;9.50;1.00;;;;;;5043638;28;20069;-68
2024/01/15 08:44:00;;;;;;;43.20;26.13;;;9.60;2.10;;;;;;5020794;28;20060;-67
2024/01/15 08:46:25;;;;;;;29.77;26.73;;;9.60;2.30;;;;;;5042890;28;20427;-68
2024/01/15 08:48:51;;;;;;;32.17;27.85;;;9.40;1.70;;;;;;5040796;28;20044;-68
2024/01/15 08:51:18;;;;;;;28.90;26.00;;;9.60;1.00;;;;;;5043763;28;20570;-68
2024/01/15 08:53:44;;;;;;;28.05;25.02;;;9.60;1.00;;;;;;5044619;28;20087;-67
2024/01/15 08:56:09;;;;;;;25.67;23.55;;;9.80;1.00;;;;;;5044652;28;20091;-67
2024/01/15 08:58:35;;;;;;;24.58;22.20;;;9.90;1.00;;;;;;5042311;28;20077;-68
2024/01/15 09:01:01;;;;;;;22.60;20.35;;;9.70;1.00;;;;;;5042442;28;20606;-67
2024/01/15 09:03:26;;;;;;;23.73;21.40;;;9.70;1.00;;;;;;5042542;28;20163;-67
2024/01/15 09:05:52;;;;;;;24.10;21.92;;;9.70;1.00;;;;;;5042554;28;20495;-67
2024/01/15 09:08:18;;;;;;;26.63;21.63;;;9.60;1.00;;;;;;5040694;28;20043;-67
2024/01/15 09:10:43;;;;;;;25.50;23.10;;;9.70;1.00;;;;;;5043008;28;20507;-67
2024/01/15 09:13:09;;;;;;;24.77;22.45;;;9.80;1.00;;;;;;5042357;28;20632;-67
2024/01/15 09:15:34;;;;;;;24.92;22.63;;;9.90;1.00;;;;;;5042298;28;20075;-68
2024/01/15 09:18:02;;;;;;;24.08;21.95;;;10.00;1.00;;;;;;5041472;28;20044;-68
2024/01/15 09:20:27;;;;;;;24.70;22.17;;;9.70;1.00;;;;;;5041921;28;20150;-69
2024/01/15 09:22:53;;;;;;;26.52;24.00;;;9.80;1.00;;;;;;5058674;28;20037;-69
2024/01/15 09:25:19;;;;;;;26.38;23.77;;;10.00;1.00;;;;;;5042531;28;20048;-69
2024/01/15 09:27:45;;;;;;;26.67;24.38;;;9.80;1.00;;;;;;5043215;28;20095;-68
2024/01/15 09:30:11;;;;;;;24.48;22.27;;;9.80;1.00;;;;;;5040839;28;20507;-67
2024/01/15 09:32:36;;;;;;;25.30;23.00;;;9.90;1.00;;;;;;5042948;28;20044;-67
2024/01/15 09:35:02;;;;;;;25.88;23.52;;;9.80;1.00;;;;;;5043643;28;20051;-67
2024/01/15 09:37:27;;;;;;;30.58;27.65;;;9.90;1.00;;;;;;5037140;28;20040;-67
2024/01/15 09:39:55;;;;;;;28.45;25.63;;;9.90;1.00;;;;;;5033742;28;20044;-67
2024/01/15 09:42:24;;;;;;;28.15;25.65;;;9.90;5.90;;;;;;5033659;28;20178;-67
2024/01/15 09:44:49;;;;;;;29.30;26.80;;;9.70;14.10;;;;;;5042240;28;20043;-67
2024/01/15 09:47:16;;;;;;;31.60;28.73;;;9.70;24.20;;;;;;5041983;28;20045;-67
2024/01/15 09:49:42;;;;;;;27.90;25.60;;;9.60;38.90;;;;;;5041414;28;20075;-67
2024/01/15 09:52:07;;;;;;;26.67;24.20;;;9.20;45.40;;;;;;5043915;28;20048;-67
2024/01/15 09:54:34;;;;;;;26.58;24.10;;;9.00;81.40;;;;;;5042153;28;20055;-66
2024/01/15 09:57:01;;;;;;;27.95;24.90;;;8.80;95.90;;;;;;5037795;28;20422;-66
2024/01/15 09:59:28;;;;;;;27.75;25.38;;;8.40;99.90;;;;;;5037795;28;20123;-66
2024/01/15 10:01:55;;;;;;;34.88;31.38;;;8.40;99.90;;;;;;5041369;28;20129;-65
2024/01/15 10:04:21;;;;;;;36.05;32.22;;;8.50;99.90;;;;;;5038329;28;20051;-65
2024/01/15 10:06:47;;;;;;;37.88;33.20;;;8.70;99.90;;;;;;5023585;28;20052;-66
2024/01/15 10:09:16;;;;;;;37.10;32.88;;;8.80;99.90;;;;;;5021463;28;20056;-66
2024/01/15 10:11:43;;;;;;;40.10;34.78;;;8.70;99.90;;;;;;5047933;28;20078;-67
2024/01/15 10:14:12;;;;;;;38.28;33.42;;;8.80;99.90;;;;;;5039908;28;20800;-66
2024/01/15 10:16:41;;;;;;;38.83;34.92;;;9.00;99.90;;;;;;5039563;28;20036;-66
2024/01/15 10:19:08;;;;;;;36.80;33.33;;;8.70;99.90;;;;;;5037159;28;20127;-67
2024/01/15 10:21:36;;;;;;;36.35;32.45;;;8.70;99.90;;;;;;5040520;28;20049;-67
2024/01/15 10:24:03;;;;;;;36.30;32.63;;;8.70;99.90;;;;;;5040986;28;20041;-66
2024/01/15 10:26:29;;;;;;;37.63;34.40;;;8.80;99.90;;;;;;5033486;28;20490;-68
2024/01/15 10:28:55;;;;;;;34.63;31.52;;;9.10;99.90;;;;;;5037205;28;20190;-66
2024/01/15 10:31:21;;;;;;;27.13;24.75;;;9.40;99.90;;;;;;5038977;28;20712;-67
2024/01/15 10:33:48;;;;;;;23.52;21.52;;;9.70;96.20;;;;;;5038418;28;20037;-68
2024/01/15 10:36:16;;;;;;;24.70;22.63;;;9.80;46.50;;;;;;5049387;28;20127;-67
2024/01/15 10:38:42;;;;;;;32.83;25.52;;;9.90;32.90;;;;;;5041796;28;20044;-67
2024/01/15 10:41:08;;;;;;;38.30;29.52;;;9.70;75.10;;;;;;5044542;28;20040;-67
2024/01/15 10:43:34;;;;;;;30.40;26.88;;;9.90;94.90;;;;;;5043892;28;20041;-67
2024/01/15 10:46:00;;;;;;;27.75;25.02;;;9.50;75.30;;;;;;5041094;28;20057;-66
2024/01/15 10:48:28;;;;;;;30.23;27.17;;;9.00;91.90;;;;;;5040907;28;20068;-66
2024/01/15 10:50:54;;;;;;;31.42;28.35;;;9.00;99.90;;;;;;5043072;28;20068;-65
2024/01/15 10:53:21;;;;;;;31.58;28.60;;;8.80;96.00;;;;;;5042512;28;20120;-66
2024/01/15 10:55:48;;;;;;;37.85;30.30;;;9.20;98.10;;;;;;5038907;28;20041;-65
2024/01/15 10:58:15;;;;;;;38.15;34.05;;;9.20;99.90;;;;;;5038896;28;20498;-66
2024/01/15 11:00:41;;;;;;;41.45;33.80;;;9.20;99.90;;;;;;5045725;28;20072;-66
2024/01/15 11:03:07;;;;;;;40.22;31.45;;;9.30;99.90;;;;;;5046274;28;20048;-66
2024/01/15 11:05:38;;;;;;;31.08;27.75;;;9.20;99.90;;;;;;5040969;28;21079;-66
2024/01/15 11:08:06;;;;;;;29.55;26.73;;;9.20;95.40;;;;;;5039286;28;20047;-66
2024/01/15 11:10:38;;;;;;;30.50;27.70;;;9.40;83.30;;;;;;5043937;28;20482;-67
2024/01/15 11:13:04;;;;;;;29.88;26.45;;;9.40;68.60;;;;;;5043152;28;20037;-66
2024/01/15 11:15:30;;;;;;;27.90;25.15;;;9.40;47.50;;;;;;5044157;28;20048;-66
2024/01/15 11:18:01;;;;;;;25.98;23.13;;;9.70;26.80;;;;;;5039690;28;20388;-66
2024/01/15 11:20:27;;;;;;;28.77;24.80;;;9.80;10.60;;;;;;5038496;28;20212;-67
2024/01/15 11:22:53;;;;;;;24.98;22.48;;;10.10;1.00;;;;;;5036380;28;20044;-66
2024/01/15 11:25:19;;;;;;;29.15;21.92;;;10.20;1.00;;;;;;5040352;28;20480;-67
2024/01/15 11:27:51;;;;;;;24.10;21.65;;;10.30;1.00;;;;;;5036734;28;20099;-68
2024/01/15 11:30:17;;;;;;;22.33;20.33;;;10.30;1.00;;;;;;5039790;28;20044;-68
2024/01/15 11:32:43;;;;;;;21.38;19.25;;;10.30;1.00;;;;;;5039147;28;20044;-67
2024/01/15 11:35:10;;;;;;;23.50;21.05;;;10.50;1.00;;;;;;5041986;28;20730;-67
2024/01/15 11:37:51;;;;;;;22.23;20.13;;;11.00;1.00;;;;;;5042324;28;20554;-68
2024/01/15 11:40:37;;;;;;;21.75;19.70;;;10.50;1.00;;;;;;5043551;28;20075;-68
2024/01/15 11:43:04;;;;;;;26.40;21.52;;;10.60;1.00;;;;;;5044192;28;20059;-67
2024/01/15 11:45:30;;;;;;;22.27;20.10;;;10.60;1.00;;;;;;5044991;28;20678;-68
2024/01/15 11:47:59;;;;;;;21.20;19.20;;;10.50;1.00;;;;;;5041716;28;20048;-67
2024/01/15 11:50:26;;;;;;;25.10;20.52;;;10.50;1.00;;;;;;5042921;28;20051;-69
2024/01/15 11:53:03;;;;;;;22.33;20.13;;;10.50;1.00;;;;;;5043911;28;20048;-68
2024/01/15 11:55:39;;;;;;;20.85;18.60;;;10.70;1.00;;;;;;5026868;28;20410;-67
2024/01/15 11:58:14;;;;;;;19.25;17.25;;;10.60;1.00;;;;;;5041938;28;20098;-67
2024/01/15 12:00:50;;;;;;;19.27;17.58;;;10.60;1.00;;;;;;5042859;28;20478;-67
2024/01/15 12:03:16;;;;;;;18.80;16.95;;;10.70;1.00;;;;;;5043275;28;20056;-67
2024/01/15 12:05:42;;;;;;;18.90;17.13;;;10.70;1.00;;;;;;5044197;28;20586;-67
2024/01/15 12:08:11;;;;;;;20.85;18.70;;;10.60;1.00;;;;;;5041950;28;20047;-67
2024/01/15 12:10:38;;;;;;;21.45;18.63;;;10.70;1.00;;;;;;5044279;28;20044;-67
2024/01/15 12:13:14;;;;;;;19.15;17.50;;;10.80;1.00;;;;;;5044177;28;20071;-68
2024/01/15 12:15:41;;;;;;;23.00;18.08;;;10.90;1.00;;;;;;5043247;28;20041;-68
2024/01/15 12:18:09;;;;;;;17.80;16.15;;;10.90;1.00;;;;;;5044026;28;20211;-68
2024/01/15 12:20:34;;;;;;;18.08;16.35;;;10.80;1.00;;;;;;5045390;28;20052;-68
2024/01/15 12:23:03;;;;;;;17.48;15.13;;;10.90;1.00;;;;;;5043033;28;20108;-67
2024/01/15 12:25:30;;;;;;;18.10;16.48;;;10.80;1.00;;;;;;5042261;28;20045;-68
2024/01/15 12:27:56;;;;;;;21.17;19.25;;;10.60;1.00;;;;;;5041967;28;20051;-67
2024/01/15 12:30:22;;;;;;;22.52;19.70;;;10.40;1.00;;;;;;5042966;28;20122;-67
2024/01/15 12:32:48;;;;;;;21.83;19.58;;;10.40;1.00;;;;;;5043048;28;20514;-66